Janesville Atmospheric Data: 05/15/2019 Summary  Detailed Graphs  Station List

  Temperature     Wind Precipitation Visibility
Timestamp Air Wet
Bulb
Dew-
point
24-hr
Max
24-hr
Min
Relative
Humidity
Atmospheric
Pressure
Avg
Speed
Avg
Dir
Spot
Speed
Spot
Dir
Max
Speed
Max
Dir
  Rate Situation Start End 1 hr 3 hr 6 hr 12 hr 24 hr   Situation
Date Time °F °F °F °F °F % in Hg mph ° mph ° mph ° Y/N in/hr text Date Time Date Time in in in in in mi text
05/15/2019 12:13 AM 52.70 43.52 32.00 78.80 43.52 45.0 Not Reported 2.91 SW 2.46 SW 5.37 SW No 0.000 No Precipitation 05/07/2019 02:37 AM 05/07/2019 02:42 AM 0.000 0.000 0.000 0.000 0.000 Not Reported Not Reported
05/15/2019 12:28 AM 52.52 43.34 31.46 78.80 43.52 45.0 Not Reported 3.36 SW 2.46 SW 4.03 W No 0.000 No Precipitation 05/07/2019 02:37 AM 05/07/2019 02:42 AM 0.000 0.000 0.000 0.000 0.000 Not Reported Not Reported
05/15/2019 12:43 AM 51.98 43.16 32.00 78.80 43.52 46.0 Not Reported 3.36 SW 1.79 W 4.25 W No 0.000 No Precipitation 05/07/2019 02:37 AM 05/07/2019 02:42 AM 0.000 0.000 0.000 0.000 0.000 Not Reported Not Reported
05/15/2019 12:58 AM 52.16 42.98 31.82 78.80 43.52 44.0 Not Reported 0.00 N 0.00 SW 4.70 W No 0.000 No Precipitation 05/07/2019 02:37 AM 05/07/2019 02:42 AM 0.000 0.000 0.000 0.000 0.000 Not Reported Not Reported
05/15/2019 01:13 AM 52.16 43.34 33.08 69.44 46.58 47.0 Not Reported 2.24 W 0.89 SW 3.58 SW No 0.000 No Precipitation 05/07/2019 02:37 AM 05/07/2019 02:42 AM 0.000 0.000 0.000 0.000 0.000 Not Reported Not Reported
05/15/2019 01:28 AM 51.80 43.34 33.26 69.44 46.58 48.0 Not Reported 2.01 SW 1.12 SW 2.91 W No 0.000 No Precipitation 05/07/2019 02:37 AM 05/07/2019 02:42 AM 0.000 0.000 0.000 0.000 0.000 Not Reported Not Reported
05/15/2019 01:43 AM 51.80 43.70 32.72 69.44 46.58 50.0 Not Reported 0.45 W 2.46 SW 4.03 S No 0.000 No Precipitation 05/07/2019 02:37 AM 05/07/2019 02:42 AM 0.000 0.000 0.000 0.000 0.000 Not Reported Not Reported
05/15/2019 01:58 AM 50.90 43.34 34.34 69.44 46.58 52.0 Not Reported 1.12 S 0.00 S 3.36 SW No 0.000 No Precipitation 05/07/2019 02:37 AM 05/07/2019 02:42 AM 0.000 0.000 0.000 0.000 0.000 Not Reported Not Reported
05/15/2019 02:13 AM 51.08 43.16 33.98 69.44 46.58 51.0 Not Reported 5.14 W 3.13 W 6.49 W No 0.000 No Precipitation 05/07/2019 02:37 AM 05/07/2019 02:42 AM 0.000 0.000 0.000 0.000 0.000 Not Reported Not Reported
05/15/2019 02:28 AM 52.16 43.52 32.54 69.44 46.58 48.0 Not Reported 3.13 W 2.46 SW 6.04 W No 0.000 No Precipitation 05/07/2019 02:37 AM 05/07/2019 02:42 AM 0.000 0.000 0.000 0.000 0.000 Not Reported Not Reported
05/15/2019 02:43 AM 50.72 42.98 33.98 69.44 46.58 52.0 Not Reported 2.68 SW 2.68 W 4.47 SW No 0.000 No Precipitation 05/07/2019 02:37 AM 05/07/2019 02:42 AM 0.000 0.000 0.000 0.000 0.000 Not Reported Not Reported
05/15/2019 02:58 AM 50.54 43.34 34.52 69.44 46.58 54.0 Not Reported 2.68 W 1.79 W 5.37 NW No 0.000 No Precipitation 05/07/2019 02:37 AM 05/07/2019 02:42 AM 0.000 0.000 0.000 0.000 0.000 Not Reported Not Reported
05/15/2019 03:13 AM 51.26 42.98 33.08 69.44 46.58 49.0 Not Reported 0.00 SE 1.34 N 2.24 N No 0.000 No Precipitation 05/07/2019 02:37 AM 05/07/2019 02:42 AM 0.000 0.000 0.000 0.000 0.000 Not Reported Not Reported
05/15/2019 03:28 AM 51.08 42.62 32.54 69.44 46.58 48.0 Not Reported 1.79 SE 1.79 SE 4.92 S No 0.000 No Precipitation 05/07/2019 02:37 AM 05/07/2019 02:42 AM 0.000 0.000 0.000 0.000 0.000 Not Reported Not Reported
05/15/2019 03:43 AM 50.72 42.80 32.90 69.44 46.58 50.0 Not Reported 0.89 S 0.67 SW 2.91 SE No 0.000 No Precipitation 05/07/2019 02:37 AM 05/07/2019 02:42 AM 0.000 0.000 0.000 0.000 0.000 Not Reported Not Reported
05/15/2019 03:58 AM 50.72 42.98 33.62 69.44 46.58 51.0 Not Reported 3.13 NW 2.46 W 1.34 SW No 0.000 No Precipitation 05/07/2019 02:37 AM 05/07/2019 02:42 AM 0.000 0.000 0.000 0.000 0.000 Not Reported Not Reported
05/15/2019 04:13 AM 49.64 42.80 34.34 69.44 46.58 56.0 Not Reported 0.45 W 2.01 W 3.36 W No 0.000 No Precipitation 05/07/2019 02:37 AM 05/07/2019 02:42 AM 0.000 0.000 0.000 0.000 0.000 Not Reported Not Reported
05/15/2019 04:28 AM 50.36 42.80 33.08 69.44 46.58 52.0 Not Reported 3.36 SE 3.36 SE 3.13 W No 0.000 No Precipitation 05/07/2019 02:37 AM 05/07/2019 02:42 AM 0.000 0.000 0.000 0.000 0.000 Not Reported Not Reported
05/15/2019 04:43 AM 50.00 42.44 32.72 69.44 46.58 52.0 Not Reported 3.80 E 2.24 E 4.92 E No 0.000 No Precipitation 05/07/2019 02:37 AM 05/07/2019 02:42 AM 0.000 0.000 0.000 0.000 0.000 Not Reported Not Reported
05/15/2019 04:58 AM 49.46 42.26 33.44 69.44 46.58 53.0 Not Reported 0.89 SW 0.00 SW 4.03 E No 0.000 No Precipitation 05/07/2019 02:37 AM 05/07/2019 02:42 AM 0.000 0.000 0.000 0.000 0.000 Not Reported Not Reported
05/15/2019 05:13 AM 49.28 42.08 33.26 69.44 46.58 53.0 Not Reported 3.13 SE 4.03 E 4.92 E No 0.000 No Precipitation 05/07/2019 02:37 AM 05/07/2019 02:42 AM 0.000 0.000 0.000 0.000 0.000 Not Reported Not Reported
05/15/2019 05:28 AM 50.18 41.72 31.28 69.44 46.58 46.0 Not Reported 2.24 S 2.68 S 4.25 E No 0.000 No Precipitation 05/07/2019 02:37 AM 05/07/2019 02:42 AM 0.000 0.000 0.000 0.000 0.000 Not Reported Not Reported
05/15/2019 05:43 AM 48.92 42.44 35.06 69.44 46.58 58.0 Not Reported 3.13 NE 3.13 NE 3.13 NW No 0.000 No Precipitation 05/07/2019 02:37 AM 05/07/2019 02:42 AM 0.000 0.000 0.000 0.000 0.000 Not Reported Not Reported
05/15/2019 05:58 AM 49.46 42.62 34.52 69.44 46.58 56.0 Not Reported 0.45 NW 0.89 NW 4.47 NE No 0.000 No Precipitation 05/07/2019 02:37 AM 05/07/2019 02:42 AM 0.000 0.000 0.000 0.000 0.000 Not Reported Not Reported
05/15/2019 06:13 AM 48.92 42.44 34.34 69.44 46.58 57.0 Not Reported 2.24 W 2.01 W 4.25 W No 0.000 No Precipitation 05/07/2019 02:37 AM 05/07/2019 02:42 AM 0.000 0.000 0.000 0.000 0.000 Not Reported Not Reported
05/15/2019 06:28 AM 49.82 42.80 34.52 69.44 46.58 55.0 Not Reported 4.47 E 5.14 E 3.36 SW No 0.000 No Precipitation 05/07/2019 02:37 AM 05/07/2019 02:42 AM 0.000 0.000 0.000 0.000 0.000 Not Reported Not Reported
05/15/2019 06:43 AM 51.44 42.62 30.92 69.44 46.58 46.0 Not Reported 4.03 E 4.70 SE 7.61 SW No 0.000 No Precipitation 05/07/2019 02:37 AM 05/07/2019 02:42 AM 0.000 0.000 0.000 0.000 0.000 Not Reported Not Reported
05/15/2019 06:58 AM 52.34 42.80 30.38 69.44 46.58 43.0 Not Reported 5.37 SE 4.70 SE 5.14 SE No 0.000 No Precipitation 05/07/2019 02:37 AM 05/07/2019 02:42 AM 0.000 0.000 0.000 0.000 0.000 Not Reported Not Reported
05/15/2019 07:13 AM 51.98 43.16 32.36 69.44 46.58 47.0 Not Reported 0.67 N 4.92 S 6.71 S No 0.000 No Precipitation 05/07/2019 02:37 AM 05/07/2019 02:42 AM 0.000 0.000 0.000 0.000 0.000 Not Reported Not Reported
05/15/2019 07:28 AM 52.34 43.34 32.72 69.44 46.58 46.0 Not Reported 2.68 S 3.58 S 7.38 S No 0.000 No Precipitation 05/07/2019 02:37 AM 05/07/2019 02:42 AM 0.000 0.000 0.000 0.000 0.000 Not Reported Not Reported
05/15/2019 07:43 AM 53.24 43.34 31.82 69.44 46.58 42.0 Not Reported 3.13 N 5.14 E 4.92 W No 0.000 No Precipitation 05/07/2019 02:37 AM 05/07/2019 02:42 AM 0.000 0.000 0.000 0.000 0.000 Not Reported Not Reported
05/15/2019 07:58 AM 51.98 43.70 33.98 69.44 46.58 50.0 Not Reported 3.58 W 2.68 W 7.61 SW No 0.000 No Precipitation 05/07/2019 02:37 AM 05/07/2019 02:42 AM 0.000 0.000 0.000 0.000 0.000 Not Reported Not Reported
05/15/2019 08:13 AM 51.80 44.42 36.50 69.44 46.58 54.0 Not Reported 1.57 SW 1.57 S 3.13 S No 0.000 No Precipitation 05/07/2019 02:37 AM 05/07/2019 02:42 AM 0.000 0.000 0.000 0.000 0.000 Not Reported Not Reported
05/15/2019 08:28 AM 53.96 44.96 34.52 69.44 46.58 47.0 Not Reported 3.36 S 2.68 S 3.13 SW No 0.000 No Precipitation 05/07/2019 02:37 AM 05/07/2019 02:42 AM 0.000 0.000 0.000 0.000 0.000 Not Reported Not Reported
05/15/2019 08:43 AM 54.14 45.14 34.70 69.44 46.58 47.0 Not Reported 12.75 S 15.88 S 12.97 SW No 0.000 No Precipitation 05/07/2019 02:37 AM 05/07/2019 02:42 AM 0.000 0.000 0.000 0.000 0.000 Not Reported Not Reported
05/15/2019 08:59 AM 52.70 45.14 36.32 69.44 46.58 54.0 Not Reported 6.49 SE 6.49 SE 15.88 S No 0.000 No Precipitation 05/07/2019 02:37 AM 05/07/2019 02:42 AM 0.000 0.000 0.000 0.000 0.000 Not Reported Not Reported
05/15/2019 09:13 AM 52.16 45.50 37.94 69.44 46.58 58.0 Not Reported 8.28 SW 2.68 W 7.83 SW No 0.000 No Precipitation 05/07/2019 02:37 AM 05/07/2019 02:42 AM 0.000 0.000 0.000 0.000 0.000 Not Reported Not Reported
05/15/2019 09:28 AM 50.36 45.14 39.92 69.44 46.58 66.0 Not Reported 7.38 SW 7.16 W 10.96 SW No 0.000 No Precipitation 05/07/2019 02:37 AM 05/07/2019 02:42 AM 0.000 0.000 0.000 0.000 0.000 Not Reported Not Reported
05/15/2019 09:43 AM 49.82 45.68 41.00 69.44 46.58 73.0 Not Reported 3.58 SW 1.34 S 12.75 SW No 0.000 No Precipitation 05/07/2019 02:37 AM 05/07/2019 02:42 AM 0.000 0.000 0.000 0.000 0.000 Not Reported Not Reported
05/15/2019 09:58 AM 50.90 46.22 40.46 69.44 46.58 69.0 Not Reported 5.82 SW 2.91 W 6.49 W No 0.000 No Precipitation 05/07/2019 02:37 AM 05/07/2019 02:42 AM 0.000 0.000 0.000 0.000 0.000 Not Reported Not Reported
05/15/2019 10:13 AM 50.36 46.40 41.36 69.44 46.58 74.0 Not Reported 6.04 E 4.92 SE 9.17 SE No 0.000 No Precipitation 05/07/2019 02:37 AM 05/07/2019 02:42 AM 0.000 0.000 0.000 0.000 0.000 Not Reported Not Reported
05/15/2019 10:28 AM 50.18 46.58 42.08 69.44 46.58 77.0 Not Reported 1.34 SE 0.00 W 6.93 E No 0.000 No Precipitation 05/07/2019 02:37 AM 05/07/2019 02:42 AM 0.000 0.000 0.000 0.000 0.000 Not Reported Not Reported
05/15/2019 10:43 AM 50.72 46.58 42.26 69.44 46.58 73.0 Not Reported 3.58 SW 6.04 SW 3.58 SE No 0.000 No Precipitation 05/07/2019 02:37 AM 05/07/2019 02:42 AM 0.000 0.000 0.000 0.000 0.000 Not Reported Not Reported
05/15/2019 10:58 AM 51.08 46.76 41.54 69.44 46.58 72.0 Not Reported 6.26 SW 7.16 S 6.93 SE No 0.000 No Precipitation 05/07/2019 02:37 AM 05/07/2019 02:42 AM 0.000 0.000 0.000 0.000 0.000 Not Reported Not Reported
05/15/2019 11:14 AM 51.44 46.76 42.62 69.44 46.58 71.0 Not Reported 7.16 S 7.16 S 8.05 S No 0.000 No Precipitation 05/07/2019 02:37 AM 05/07/2019 02:42 AM 0.000 0.000 0.000 0.000 0.000 Not Reported Not Reported
05/15/2019 11:28 AM 51.80 47.84 42.44 69.44 46.58 75.0 Not Reported 4.03 SW 3.13 SW 9.84 S No 0.000 No Precipitation 05/07/2019 02:37 AM 05/07/2019 02:42 AM 0.000 0.000 0.000 0.000 0.000 Not Reported Not Reported
05/15/2019 11:43 AM 52.52 47.12 40.82 69.44 46.58 66.0 Not Reported 5.82 SW 4.25 SE 11.86 SW No 0.000 No Precipitation 05/07/2019 02:37 AM 05/07/2019 02:42 AM 0.000 0.000 0.000 0.000 0.000 Not Reported Not Reported
05/15/2019 11:58 AM 52.70 46.22 40.64 69.44 46.58 60.0 Not Reported 4.92 SW 4.47 SE 7.83 SW No 0.000 No Precipitation 05/07/2019 02:37 AM 05/07/2019 02:42 AM 0.000 0.000 0.000 0.000 0.000 Not Reported Not Reported
05/15/2019 12:13 PM 53.06 46.76 38.84 69.44 46.58 61.0 Not Reported 5.59 S 11.86 SW 10.74 SW No 0.000 No Precipitation 05/07/2019 02:37 AM 05/07/2019 02:42 AM 0.000 0.000 0.000 0.000 0.000 Not Reported Not Reported
05/15/2019 12:28 PM 52.34 45.86 38.12 69.44 46.58 59.0 Not Reported 12.08 SW 11.18 S 13.20 S No 0.000 No Precipitation 05/07/2019 02:37 AM 05/07/2019 02:42 AM 0.000 0.000 0.000 0.000 0.000 Not Reported Not Reported
05/15/2019 12:43 PM 52.70 46.58 42.44 69.44 46.58 62.0 Not Reported 6.71 SE 6.93 S 13.87 S No 0.000 No Precipitation 05/07/2019 02:37 AM 05/07/2019 02:42 AM 0.000 0.000 0.000 0.000 0.000 Not Reported Not Reported
05/15/2019 12:58 PM 55.58 48.38 42.98 69.44 46.58 59.0 Not Reported 3.80 SE 2.68 E 7.83 SE No 0.000 No Precipitation 05/07/2019 02:37 AM 05/07/2019 02:42 AM 0.000 0.000 0.000 0.000 0.000 Not Reported Not Reported
05/15/2019 01:13 PM 57.20 49.28 41.54 69.44 46.58 55.0 Not Reported 7.83 SW 11.63 S 16.33 SE No 0.000 No Precipitation 05/07/2019 02:37 AM 05/07/2019 02:42 AM 0.000 0.000 0.000 0.000 0.000 Not Reported Not Reported
05/15/2019 01:28 PM 54.50 46.76 39.38 69.44 46.58 55.0 Not Reported 13.87 S 11.18 S 16.33 S No 0.000 No Precipitation 05/07/2019 02:37 AM 05/07/2019 02:42 AM 0.000 0.000 0.000 0.000 0.000 Not Reported Not Reported
05/15/2019 01:43 PM 54.14 48.38 42.26 69.44 46.58 66.0 Not Reported 8.05 S 7.38 SE 14.76 SE No 0.000 No Precipitation 05/07/2019 02:37 AM 05/07/2019 02:42 AM 0.000 0.000 0.000 0.000 0.000 Not Reported Not Reported
05/15/2019 01:58 PM 56.30 49.28 41.00 69.44 46.58 60.0 Not Reported 7.38 SE 6.26 SE 10.96 S No 0.000 No Precipitation 05/07/2019 02:37 AM 05/07/2019 02:42 AM 0.000 0.000 0.000 0.000 0.000 Not Reported Not Reported
05/15/2019 02:14 PM 54.32 47.48 39.92 69.44 46.58 59.0 Not Reported 6.71 S 10.51 S 16.11 S No 0.000 No Precipitation 05/07/2019 02:37 AM 05/07/2019 02:42 AM 0.000 0.000 0.000 0.000 0.000 Not Reported Not Reported
05/15/2019 02:28 PM 55.58 47.48 39.20 69.44 46.58 54.0 Not Reported 16.55 SW 9.17 SW 20.36 S No 0.000 No Precipitation 05/07/2019 02:37 AM 05/07/2019 02:42 AM 0.000 0.000 0.000 0.000 0.000 Not Reported Not Reported
05/15/2019 02:43 PM 55.58 46.94 38.48 69.44 46.58 51.0 Not Reported 6.26 SW 4.92 W 16.78 SW No 0.000 No Precipitation 05/07/2019 02:37 AM 05/07/2019 02:42 AM 0.000 0.000 0.000 0.000 0.000 Not Reported Not Reported
05/15/2019 02:58 PM 55.04 47.12 39.02 69.44 46.58 54.0 Not Reported 9.40 S 5.59 W 11.18 SE No 0.000 No Precipitation 05/07/2019 02:37 AM 05/07/2019 02:42 AM 0.000 0.000 0.000 0.000 0.000 Not Reported Not Reported
05/15/2019 03:13 PM 55.76 48.02 40.28 69.44 46.58 55.0 Not Reported 5.14 S 10.07 S 23.04 S No 0.000 No Precipitation 05/07/2019 02:37 AM 05/07/2019 02:42 AM 0.000 0.000 0.000 0.000 0.000 Not Reported Not Reported
05/15/2019 03:28 PM 56.84 49.10 41.00 69.44 46.58 56.0 Not Reported 2.91 SW 1.12 E 16.11 S No 0.000 No Precipitation 05/15/2019 07:15 AM 05/15/2019 07:20 AM 0.004 0.004 0.004 0.004 0.004 Not Reported Not Reported
05/15/2019 03:43 PM 55.22 47.12 39.02 69.44 46.58 54.0 Not Reported 10.96 S 8.05 S 10.74 SW No 0.000 No Precipitation 05/15/2019 07:15 AM 05/15/2019 07:20 AM 0.004 0.004 0.004 0.004 0.004 Not Reported Not Reported
05/15/2019 03:58 PM 55.76 47.30 38.30 69.44 46.58 52.0 Not Reported 10.96 S 12.08 S 17.45 S No 0.000 No Precipitation 05/15/2019 07:15 AM 05/15/2019 07:20 AM 0.004 0.004 0.004 0.004 0.004 Not Reported Not Reported
05/15/2019 04:13 PM 54.86 46.94 38.84 69.44 46.58 54.0 Not Reported 11.86 S 6.93 SE 17.22 S No 0.000 No Precipitation 05/15/2019 07:15 AM 05/15/2019 07:20 AM 0.004 0.004 0.004 0.004 0.004 Not Reported Not Reported
05/15/2019 04:28 PM 56.12 47.66 38.84 69.44 46.58 52.0 Not Reported 8.95 S 4.92 SE 14.54 S No 0.000 No Precipitation 05/15/2019 07:15 AM 05/15/2019 07:20 AM 0.000 0.004 0.004 0.004 0.004 Not Reported Not Reported
05/15/2019 04:43 PM 55.58 47.30 38.84 69.44 46.58 52.0 Not Reported 6.04 S 4.25 SE 10.96 SE No 0.000 No Precipitation 05/15/2019 07:15 AM 05/15/2019 07:20 AM 0.000 0.004 0.004 0.004 0.004 Not Reported Not Reported
05/15/2019 04:58 PM 55.58 46.76 37.04 69.44 46.58 50.0 Not Reported 8.28 SW 13.42 SW 13.87 SW No 0.000 No Precipitation 05/15/2019 07:15 AM 05/15/2019 07:20 AM 0.000 0.004 0.004 0.004 0.004 Not Reported Not Reported
05/15/2019 05:13 PM 54.86 46.58 38.12 69.44 46.58 52.0 Not Reported 10.29 SW 6.49 SE 16.11 SW No 0.000 No Precipitation 05/15/2019 07:15 AM 05/15/2019 07:20 AM 0.000 0.004 0.004 0.004 0.004 Not Reported Not Reported
05/15/2019 05:28 PM 55.22 46.76 38.30 69.44 46.58 51.0 Not Reported 11.18 SW 10.51 SW 12.97 SW No 0.000 No Precipitation 05/15/2019 07:15 AM 05/15/2019 07:20 AM 0.000 0.004 0.004 0.004 0.004 Not Reported Not Reported
05/15/2019 05:43 PM 56.12 47.48 38.48 69.44 46.58 51.0 Not Reported 4.25 E 7.83 SE 14.09 SE No 0.000 No Precipitation 05/15/2019 07:15 AM 05/15/2019 07:20 AM 0.000 0.004 0.004 0.004 0.004 Not Reported Not Reported
05/15/2019 05:58 PM 55.04 46.76 38.12 69.44 46.58 52.0 Not Reported 8.28 SE 7.61 SE 13.65 SE No 0.000 No Precipitation 05/15/2019 07:15 AM 05/15/2019 07:20 AM 0.000 0.004 0.004 0.004 0.004 Not Reported Not Reported
05/15/2019 06:13 PM 55.04 46.94 38.12 69.44 46.58 53.0 Not Reported 8.05 S 5.82 S 12.97 SW No 0.000 No Precipitation 05/15/2019 07:15 AM 05/15/2019 07:20 AM 0.000 0.004 0.004 0.004 0.004 Not Reported Not Reported
05/15/2019 06:28 PM 55.22 47.12 38.12 69.44 46.58 53.0 Not Reported 10.07 E 6.93 SE 13.42 S No 0.000 No Precipitation 05/15/2019 07:15 AM 05/15/2019 07:20 AM 0.000 0.000 0.004 0.004 0.004 Not Reported Not Reported
05/15/2019 06:43 PM 54.68 46.58 38.48 69.44 46.58 53.0 Not Reported 5.59 SE 8.28 S 18.34 S No 0.000 No Precipitation 05/15/2019 07:15 AM 05/15/2019 07:20 AM 0.000 0.000 0.004 0.004 0.004 Not Reported Not Reported
05/15/2019 06:58 PM 54.50 46.58 37.94 69.44 46.58 53.0 Not Reported 7.38 NE 5.37 E 10.96 E No 0.000 No Precipitation 05/15/2019 07:15 AM 05/15/2019 07:20 AM 0.000 0.000 0.004 0.004 0.004 Not Reported Not Reported
05/15/2019 07:13 PM 54.14 46.04 37.04 69.44 46.58 53.0 Not Reported 9.62 SE 12.75 SW 15.43 SE No 0.000 No Precipitation 05/15/2019 07:15 AM 05/15/2019 07:20 AM 0.000 0.000 0.004 0.004 0.004 Not Reported Not Reported
05/15/2019 07:28 PM 55.04 46.76 38.66 69.44 46.58 52.0 Not Reported 6.04 SE 9.62 SE 16.11 S No 0.000 No Precipitation 05/15/2019 07:15 AM 05/15/2019 07:20 AM 0.000 0.000 0.004 0.004 0.004 Not Reported Not Reported
05/15/2019 07:43 PM 54.14 46.40 38.12 69.44 46.58 54.0 Not Reported 6.26 SE 2.46 E 10.74 S No 0.000 No Precipitation 05/15/2019 07:15 AM 05/15/2019 07:20 AM 0.000 0.000 0.004 0.004 0.004 Not Reported Not Reported
05/15/2019 07:58 PM 53.96 45.86 37.04 69.44 46.58 52.0 Not Reported 8.05 SE 10.96 SE 7.83 SE No 0.000 No Precipitation 05/15/2019 07:15 AM 05/15/2019 07:20 AM 0.000 0.000 0.004 0.004 0.004 Not Reported Not Reported
05/15/2019 08:13 PM 54.14 45.68 35.96 69.44 46.58 50.0 Not Reported 6.49 E 5.82 E 10.07 SE No 0.000 No Precipitation 05/15/2019 07:15 AM 05/15/2019 07:20 AM 0.000 0.000 0.004 0.004 0.004 Not Reported Not Reported
05/15/2019 08:28 PM 54.14 45.50 35.96 69.44 46.58 49.0 Not Reported 4.70 SE 5.82 SE 8.50 SE No 0.000 No Precipitation 05/15/2019 07:15 AM 05/15/2019 07:20 AM 0.000 0.000 0.004 0.004 0.004 Not Reported Not Reported
05/15/2019 08:43 PM 53.96 44.96 34.88 69.44 46.58 48.0 Not Reported 6.04 SE 8.95 SE 7.38 SE No 0.000 No Precipitation 05/15/2019 07:15 AM 05/15/2019 07:20 AM 0.000 0.000 0.004 0.004 0.004 Not Reported Not Reported
05/15/2019 08:58 PM 53.60 44.96 35.06 69.44 46.58 50.0 Not Reported 4.25 SE 3.80 S 8.95 SE No 0.000 No Precipitation 05/15/2019 07:15 AM 05/15/2019 07:20 AM 0.000 0.000 0.004 0.004 0.004 Not Reported Not Reported
05/15/2019 09:13 PM 53.06 44.78 35.24 69.44 46.58 50.0 Not Reported 4.92 SE 5.14 SE 5.59 SE No 0.000 No Precipitation 05/15/2019 07:15 AM 05/15/2019 07:20 AM 0.000 0.000 0.004 0.004 0.004 Not Reported Not Reported
05/15/2019 09:28 PM 52.88 44.78 35.42 69.44 46.58 51.0 Not Reported 5.37 S 5.37 S 7.16 SE No 0.000 No Precipitation 05/15/2019 07:15 AM 05/15/2019 07:20 AM 0.000 0.000 0.000 0.004 0.004 Not Reported Not Reported
05/15/2019 09:43 PM 53.78 44.78 34.70 69.44 46.58 48.0 Not Reported 7.38 S 6.71 SE 12.75 SE No 0.000 No Precipitation 05/15/2019 07:15 AM 05/15/2019 07:20 AM 0.000 0.000 0.000 0.004 0.004 Not Reported Not Reported
05/15/2019 09:58 PM 53.60 45.14 35.24 69.44 46.58 50.0 Not Reported 10.07 S 9.84 S 11.41 S No 0.000 No Precipitation 05/15/2019 07:15 AM 05/15/2019 07:20 AM 0.000 0.000 0.000 0.004 0.004 Not Reported Not Reported
05/15/2019 10:13 PM 52.88 45.32 36.86 69.44 46.58 54.0 Not Reported 5.82 S 4.70 W 15.21 SE No 0.000 No Precipitation 05/15/2019 07:15 AM 05/15/2019 07:20 AM 0.000 0.000 0.000 0.004 0.004 Not Reported Not Reported
05/15/2019 10:28 PM 52.16 45.32 38.12 69.44 46.58 58.0 Not Reported 5.59 SW 6.26 SW 9.40 SW No 0.000 No Precipitation 05/15/2019 07:15 AM 05/15/2019 07:20 AM 0.000 0.000 0.000 0.004 0.004 Not Reported Not Reported
05/15/2019 10:43 PM 51.44 45.14 38.66 69.44 46.58 61.0 Not Reported 6.71 S 6.93 SE 9.84 S No 0.000 No Precipitation 05/15/2019 07:15 AM 05/15/2019 07:20 AM 0.000 0.000 0.000 0.004 0.004 Not Reported Not Reported
05/15/2019 10:58 PM 51.26 45.14 38.66 69.44 46.58 62.0 Not Reported 5.37 S 8.72 S 9.17 SE No 0.000 No Precipitation 05/15/2019 07:15 AM 05/15/2019 07:20 AM 0.000 0.000 0.000 0.004 0.004 Not Reported Not Reported
05/15/2019 11:13 PM 51.26 45.14 38.48 69.44 46.58 61.0 Not Reported 4.92 SE 2.46 SE 11.41 S No 0.000 No Precipitation 05/15/2019 07:15 AM 05/15/2019 07:20 AM 0.000 0.000 0.000 0.004 0.004 Not Reported Not Reported
05/15/2019 11:28 PM 50.72 44.78 38.66 69.44 46.58 62.0 Not Reported 7.38 E 11.86 SE 8.50 S No 0.000 No Precipitation 05/15/2019 07:15 AM 05/15/2019 07:20 AM 0.000 0.000 0.000 0.004 0.004 Not Reported Not Reported
05/15/2019 11:43 PM 51.08 44.96 38.30 69.44 46.58 61.0 Not Reported 9.40 S 7.61 SE 15.66 SE No 0.000 No Precipitation 05/15/2019 07:15 AM 05/15/2019 07:20 AM 0.000 0.000 0.000 0.004 0.004 Not Reported Not Reported
05/15/2019 11:58 PM 50.90 45.14 38.66 69.44 46.58 63.0 Not Reported 6.71 SE 4.92 E 12.08 S No 0.000 No Precipitation 05/15/2019 07:15 AM 05/15/2019 07:20 AM 0.000 0.000 0.000 0.004 0.004 Not Reported Not Reported